Plymouth, MI (48170)

10:45 PM EST on February 12, 2016 (GMT -0500)
Napier Observatory | | Change Station
CLOSE
Current Station
Personal Weather Station
Location: Canton, MI
Elevation: 798 ft
Nearby Weather Stations

Elev 798 ft 42.34 °N, 83.55 °W | Updated 14 seconds ago

Partly Cloudy
Partly Cloudy
8.2 °F
Feels Like 8 °F
N
2.0
Wind Variable Wind from NW
Gusts 14.0 mph

Today
High -- | Low -- °F
--% Chance of Precip.
Yesterday
High -- | Low -- °F
Precip. -- in
Pressure 30.20 in
Visibility 10.0 miles
Clouds Clear
Windchill 8 °F
Dew Point 2 °F
Humidity 75%
Rainfall 0.00 in
Snow Depth Not available.
7:35 AM 6:01 PM
Waxing Crescent, 26% visible
METAR KYIP 130253Z 36023KT 10SM CLR M10/M19 A3017 RMK AO2 PK WND 35026/0239 SLP226 60000 T11001189 53040
Pressure 30.20 in
Visibility 10.0 miles
Clouds Clear
Windchill 8 °F
Dew Point 2 °F
Humidity 75%
Rainfall 0.00 in
Snow Depth Not available.
7:35 AM 6:01 PM
Waxing Crescent, 26% visible
METAR KYIP 130253Z 36023KT 10SM CLR M10/M19 A3017 RMK AO2 PK WND 35026/0239 SLP226 60000 T11001189 53040

10-Day Weather Forecast

Almanac

Astronomy

Feb. 12, 2016 Rise Set
Actual Time
Civil Twilight
Nautical Twilight
Astronomical Twilight
Moon
Length of Visible Light
Length of Day
Tomorrow will be .
, % of the Moon is Illuminated

Today's Extremes

State Highs State Lows

Community

WunderPhotos

Upload Photos

1,892,492 photos uploaded!

WunderBlog® & News

Nearby

Air Quality

  Air Quality AQ Index Pollutant
Not available.

Snow Depth

Station Depth Elevation

Earthquake Activity

City Distance Mag. Time & Date
Minimum magnitude displayed is 2.5.

Coastal Water Temperatures

Place Temperature

Stations

Nearby Weather Stations

Station Location Temp. Windchill Dew Point Humidity Wind Precip. Elev Updated Type
                   

Watches & Warnings

There are currently no watches in effect.